LiveATC.Net - Listen to live air traffic control over the Internet!


ICAO: PAAQ  IATA: PAQ   Airport: Palmer Municipal Airport
City: Palmer   State/Province: Alaska
Country: United States   Continent: North America
PAAQ METAR Weather: PAAQ 241453Z AUTO 00000KT 10SM BKN110 M20/M23 A2941 RMK AO2 SLP967 T12001228 56009 TSNO
PAAQ Flight Activity (FlightAware)
PAAQ Webcam:  (Airport Webcams) 
PAAQ Airport Info   (iFlightPlanner)
PAAQ VFR Sectional Chart   (iFlightPlanner) 
PAAQ IFR Low Chart   (iFlightPlanner) 

Matsu CTAF
Feed Status: UP   Listeners: 0
Listen in your browser - HTML5 player (in browser, HTML5)
Click here to listen with your own player (launches your MP3 player)
Archive Access: Matsu CTAF
FacilityFrequency
Birchwood CTAF123.000
Palmer CTAF123.600
Rural Matanuska Valley Traffic122.900
Wasilla CTAF122.800

NOTICE

Unauthorized use prohibited. See LiveATC.net Terms of Service


Airport/ARTCC Code
Frequency Search
(e.g., 124.400, 128.75)
Site-wide search
 


Browse Feeds
Top 50 Feeds
Coverage Map
Bad Weather Areas

LiveATC FAQ
Offer LiveATC feed
Contact LiveATC.net
Press Inquiries

LiveATC on iPhone
LiveATC on Android

Windows Phone
Windows 8/10

LiveATC Mobile
(Mobile browser)

ATC Audio Archives
Interesting Recordings

LiveATC Forums


Home Page
About LiveATC.net
Make a Donation
Terms of Use
Privacy Policy

Canadian Air Freqs

AIRMETs/SIGMETs

FAA Airport Status
Nat'l Airspace Status
Arrival Demand Charts


Server Software By:
Icecast.org
Liquidsoap